createdAt,value
2022-12-23T04:00:20.712Z,989.92
2022-12-23T04:01:20.526Z,989.97
2022-12-23T04:02:20.711Z,990.00
2022-12-23T04:05:20.676Z,989.92
2022-12-23T06:33:49.755Z,989.82
2022-12-23T06:35:49.687Z,989.80
2022-12-23T06:56:24.154Z,989.72
2022-12-23T06:57:30.159Z,989.72
2022-12-23T06:58:24.129Z,989.76
2022-12-23T06:59:24.132Z,989.76
2022-12-23T07:00:24.105Z,989.70
2022-12-23T07:01:24.137Z,989.66
2022-12-23T07:02:24.366Z,989.66
2022-12-23T07:03:30.177Z,989.73
2022-12-23T07:06:24.066Z,989.74
2022-12-23T07:07:24.046Z,989.79
2022-12-23T07:08:24.056Z,989.80
2022-12-23T07:09:24.019Z,989.84
2022-12-23T07:10:24.001Z,989.82
2022-12-23T07:11:23.997Z,989.84
2022-12-23T07:12:23.978Z,989.79
2022-12-23T07:13:24.185Z,989.83
2022-12-23T07:14:23.958Z,989.86
2022-12-23T07:15:24.158Z,989.88
2022-12-23T07:17:23.930Z,989.96
2022-12-23T07:18:23.917Z,989.96
2022-12-23T07:19:58.635Z,989.92
2022-12-23T07:20:58.589Z,990.00
2022-12-23T07:21:58.571Z,989.98
2022-12-23T07:22:58.785Z,989.99
2022-12-23T07:23:58.795Z,990.04
2022-12-23T07:24:58.550Z,990.07
2022-12-23T07:25:58.528Z,990.07
2022-12-23T07:26:58.548Z,990.11
2022-12-23T07:27:58.518Z,990.07
2022-12-23T07:28:58.524Z,990.04
2022-12-23T07:30:41.195Z,990.03
2022-12-23T07:31:41.490Z,990.05
2022-12-23T07:32:41.163Z,990.04
2022-12-23T07:33:41.343Z,989.97
2022-12-23T07:35:15.827Z,989.98
2022-12-23T07:36:15.833Z,989.98
2022-12-23T07:37:15.793Z,989.96
2022-12-23T07:38:15.799Z,989.97
2022-12-23T07:39:16.010Z,989.95
2022-12-23T07:40:15.777Z,989.93
2022-12-23T07:42:24.988Z,989.88
2022-12-23T07:42:59.751Z,989.92
2022-12-23T07:43:58.476Z,989.93
2022-12-23T07:44:58.675Z,989.92
2022-12-23T07:46:01.247Z,989.89
2022-12-23T07:47:04.671Z,989.91
2022-12-23T07:47:58.449Z,989.92
2022-12-23T07:48:58.627Z,989.86
2022-12-23T07:49:58.425Z,989.90
2022-12-23T07:50:58.455Z,989.83
2022-12-23T07:51:58.399Z,989.90
2022-12-23T07:52:58.378Z,989.83
2022-12-23T07:53:58.392Z,989.85
2022-12-23T07:54:58.379Z,989.84
2022-12-23T07:55:58.391Z,989.87
2022-12-23T07:56:58.338Z,989.89
2022-12-23T07:57:58.336Z,989.84
2022-12-23T07:59:04.325Z,989.81
2022-12-23T07:59:58.327Z,989.81
2022-12-23T08:00:58.365Z,989.86
2022-12-23T08:01:58.504Z,989.89
2022-12-23T08:02:58.473Z,989.94
2022-12-23T08:03:58.481Z,989.92
2022-12-23T08:04:58.522Z,989.93
2022-12-23T08:05:58.258Z,989.92
2022-12-23T08:06:58.435Z,989.84
2022-12-23T08:07:58.236Z,989.77
2022-12-23T08:08:58.213Z,989.74
2022-12-23T08:09:58.223Z,989.73
2022-12-23T08:11:04.225Z,989.74
2022-12-23T08:12:04.203Z,989.77
2022-12-23T08:12:58.171Z,989.78
2022-12-23T08:14:04.186Z,989.77
2022-12-23T08:14:58.154Z,989.84
2022-12-23T08:15:58.161Z,989.78
2022-12-23T08:16:58.234Z,989.85
2022-12-23T08:17:58.133Z,989.83
2022-12-23T08:18:58.135Z,989.81
2022-12-23T08:20:04.330Z,989.81
2022-12-23T08:20:58.089Z,989.85
2022-12-23T08:21:58.101Z,989.85
2022-12-23T08:22:58.082Z,989.90
2022-12-23T08:23:58.280Z,989.86
2022-12-23T08:24:58.054Z,989.82
2022-12-23T08:25:58.048Z,989.83
2022-12-23T08:26:58.055Z,989.81
2022-12-23T08:27:58.040Z,989.80
2022-12-23T08:28:58.009Z,989.83
2022-12-23T08:29:58.011Z,989.78
2022-12-23T08:30:58.262Z,989.78
2022-12-23T08:31:57.988Z,989.70
2022-12-23T08:32:58.028Z,989.67
2022-12-23T08:34:00.035Z,989.65
2022-12-23T08:34:57.986Z,989.59
2022-12-23T08:35:58.138Z,989.52
2022-12-23T08:36:57.942Z,989.52
2022-12-23T08:37:58.120Z,989.51
2022-12-23T08:38:57.920Z,989.53
2022-12-23T08:39:57.892Z,989.45
2022-12-23T08:40:57.901Z,989.41
2022-12-23T08:41:57.867Z,989.41
2022-12-23T08:42:58.232Z,989.37
2022-12-23T08:43:57.852Z,989.35
2022-12-23T08:44:57.854Z,989.41
2022-12-23T08:45:57.952Z,989.39
2022-12-23T08:46:57.845Z,989.41
2022-12-23T08:47:57.822Z,989.39
2022-12-23T08:48:57.862Z,989.42
2022-12-23T08:49:57.792Z,989.47
2022-12-23T08:51:03.791Z,989.52
2022-12-23T08:51:57.982Z,989.57
2022-12-23T08:52:57.772Z,989.66
2022-12-23T08:54:00.480Z,989.60
2022-12-23T08:54:57.757Z,989.60
2022-12-23T08:56:03.757Z,989.58
2022-12-23T08:56:57.730Z,989.61
2022-12-23T08:57:57.710Z,989.60
2022-12-23T08:58:57.947Z,989.54
2022-12-23T08:59:57.888Z,989.54
2022-12-23T09:00:57.879Z,989.52
2022-12-23T09:01:59.986Z,989.47
2022-12-23T09:02:57.884Z,989.45
2022-12-23T09:03:57.793Z,989.44
2022-12-23T09:04:57.645Z,989.46
2022-12-23T09:05:57.639Z,989.43
2022-12-23T09:06:57.625Z,989.40
2022-12-23T09:08:03.630Z,989.41
2022-12-23T09:08:57.601Z,989.43
2022-12-23T09:09:57.795Z,989.39
2022-12-23T09:10:57.572Z,989.42
2022-12-23T09:11:57.570Z,989.39
2022-12-23T09:12:58.198Z,989.40
2022-12-23T09:13:57.553Z,989.40
2022-12-23T09:14:57.546Z,989.44
2022-12-23T09:15:57.804Z,989.48
2022-12-23T09:17:03.526Z,989.44
2022-12-23T09:19:17.105Z,989.37
2022-12-23T09:20:10.874Z,989.34
2022-12-23T09:21:10.865Z,989.33
2022-12-23T09:22:16.869Z,989.33
2022-12-23T09:23:12.910Z,989.28
2022-12-23T09:24:11.034Z,989.31
2022-12-23T09:25:10.821Z,989.25
2022-12-23T09:26:10.822Z,989.16
2022-12-23T09:27:10.801Z,989.19
2022-12-23T09:28:10.789Z,989.20
2022-12-23T09:29:10.801Z,989.21
2022-12-23T09:30:10.775Z,989.21
2022-12-23T09:31:10.830Z,989.21
2022-12-23T09:32:17.159Z,989.16
2022-12-23T09:33:10.736Z,989.20
2022-12-23T09:34:10.923Z,989.20
2022-12-23T09:35:10.706Z,989.17
2022-12-23T09:36:10.726Z,989.12
2022-12-23T09:37:10.698Z,989.13
2022-12-23T09:38:10.691Z,989.18
2022-12-23T09:39:10.672Z,989.26
2022-12-23T09:40:11.061Z,989.26
2022-12-23T09:41:10.651Z,989.27
2022-12-23T09:42:16.639Z,989.25
2022-12-23T09:43:10.627Z,989.24
2022-12-23T09:44:10.615Z,989.21
2022-12-23T09:45:10.655Z,989.20
2022-12-23T09:46:10.700Z,989.19
2022-12-23T09:47:10.591Z,989.19
2022-12-23T09:48:10.569Z,989.11
2022-12-23T09:49:16.620Z,989.12
2022-12-23T09:50:10.555Z,989.10
2022-12-23T09:51:10.551Z,989.09
2022-12-23T09:52:10.524Z,989.09
2022-12-23T09:53:10.536Z,989.05
2022-12-23T09:54:16.394Z,988.99
2022-12-23T09:55:11.754Z,988.99
2022-12-23T09:56:10.692Z,988.98
2022-12-23T09:57:10.483Z,988.96
2022-12-23T09:58:16.465Z,988.97
2022-12-23T09:59:16.473Z,988.90
2022-12-23T10:00:10.434Z,988.91
2022-12-23T10:01:10.444Z,988.90
2022-12-23T10:02:10.716Z,988.87
2022-12-23T10:03:10.690Z,988.88
2022-12-23T10:04:10.519Z,988.92
2022-12-23T10:05:16.406Z,988.88
2022-12-23T10:06:16.388Z,988.87
2022-12-23T10:07:10.366Z,988.85
2022-12-23T10:08:10.547Z,988.81
2022-12-23T10:09:10.340Z,988.76
2022-12-23T10:10:10.339Z,988.75
2022-12-23T10:11:10.319Z,988.72
2022-12-23T10:12:10.522Z,988.68
2022-12-23T10:13:10.295Z,988.57
2022-12-23T10:14:10.291Z,988.56
2022-12-23T10:15:10.473Z,988.53
2022-12-23T10:16:12.307Z,988.49
2022-12-23T10:17:10.256Z,988.41
2022-12-23T10:18:10.324Z,988.41
2022-12-23T10:19:10.230Z,988.39
2022-12-23T10:20:10.235Z,988.32
2022-12-23T10:21:16.221Z,988.36
2022-12-23T10:22:10.209Z,988.38
2022-12-23T10:23:16.198Z,988.38
2022-12-23T10:24:10.262Z,988.37
2022-12-23T10:25:10.176Z,988.33
2022-12-23T10:26:10.365Z,988.31
2022-12-23T10:27:10.145Z,988.29
2022-12-23T10:28:10.167Z,988.24
2022-12-23T10:29:13.956Z,988.20
2022-12-23T10:30:34.375Z,988.17
2022-12-23T10:31:38.665Z,988.15
2022-12-23T10:32:17.393Z,988.13
2022-12-23T10:33:10.078Z,988.11
2022-12-23T10:34:10.307Z,988.09
2022-12-23T10:35:10.068Z,988.07
2022-12-23T10:36:10.108Z,988.01
2022-12-23T10:37:10.100Z,988.00
2022-12-23T10:38:10.043Z,987.99
2022-12-23T10:39:10.063Z,988.00
2022-12-23T10:40:16.020Z,987.99
2022-12-23T10:41:10.060Z,987.99
2022-12-23T10:42:16.004Z,987.96
2022-12-23T10:43:15.995Z,987.88
2022-12-23T10:44:09.990Z,987.89
2022-12-23T10:45:09.954Z,987.81
2022-12-23T10:46:15.980Z,987.79
2022-12-23T10:47:10.098Z,987.76
2022-12-23T10:48:13.968Z,987.79
2022-12-23T10:49:10.108Z,987.77
2022-12-23T10:50:15.947Z,987.67
2022-12-23T10:51:09.903Z,987.67
2022-12-23T10:52:09.889Z,987.62
2022-12-23T10:53:09.871Z,987.63
2022-12-23T10:54:09.871Z,987.61
2022-12-23T10:55:09.844Z,987.57
2022-12-23T10:56:09.850Z,987.62
2022-12-23T10:57:09.838Z,987.60
2022-12-23T10:58:09.833Z,987.62
2022-12-23T10:59:15.806Z,987.66
2022-12-23T11:00:09.813Z,987.64
2022-12-23T11:01:16.221Z,987.60
2022-12-23T11:02:10.274Z,987.56
2022-12-23T11:03:10.041Z,987.51
2022-12-23T11:04:09.758Z,987.50
2022-12-23T11:05:15.753Z,987.48
2022-12-23T11:06:15.775Z,987.40
2022-12-23T11:07:42.987Z,987.40
2022-12-23T11:08:10.748Z,987.38
2022-12-23T11:09:09.697Z,987.40
2022-12-23T11:10:09.898Z,987.40
2022-12-23T11:11:09.878Z,987.39
2022-12-23T11:12:09.675Z,987.40
2022-12-23T11:13:09.654Z,987.41
2022-12-23T11:14:09.672Z,987.37
2022-12-23T11:15:09.640Z,987.34
2022-12-23T11:16:09.930Z,987.34
2022-12-23T11:17:10.032Z,987.32
2022-12-23T11:18:09.607Z,987.37
2022-12-23T11:19:09.587Z,987.30
2022-12-23T11:20:09.616Z,987.29
2022-12-23T11:21:44.289Z,987.33
2022-12-23T11:22:44.251Z,987.27
2022-12-23T11:23:44.464Z,987.24
2022-12-23T11:24:44.234Z,987.23
2022-12-23T11:25:44.216Z,987.24
2022-12-23T11:26:44.255Z,987.20
2022-12-23T11:27:44.202Z,987.20
2022-12-23T11:28:44.191Z,987.17
2022-12-23T11:29:44.376Z,987.17
2022-12-23T11:30:44.165Z,987.19
2022-12-23T11:31:44.286Z,987.10
2022-12-23T11:32:44.189Z,987.10
2022-12-23T11:33:44.127Z,987.04
2022-12-23T11:34:44.126Z,987.05
2022-12-23T11:35:50.183Z,987.00
2022-12-23T11:36:44.146Z,987.05
2022-12-23T11:37:44.501Z,987.02
2022-12-23T11:38:44.073Z,987.10
2022-12-23T11:39:44.057Z,987.07
2022-12-23T11:40:44.054Z,987.03
2022-12-23T11:41:44.237Z,986.99
2022-12-23T11:42:44.036Z,986.98
2022-12-23T11:43:44.016Z,986.95
2022-12-23T11:44:44.019Z,986.92
2022-12-23T11:45:44.044Z,986.89
2022-12-23T11:46:43.999Z,986.88
2022-12-23T11:47:43.972Z,986.86
2022-12-23T11:48:43.975Z,986.87
2022-12-23T11:49:43.951Z,986.79
2022-12-23T11:50:43.948Z,986.76
2022-12-23T11:51:44.144Z,986.73
2022-12-23T11:52:43.927Z,986.70
2022-12-23T11:53:43.941Z,986.74
2022-12-23T11:54:43.905Z,986.72
2022-12-23T11:55:43.902Z,986.71
2022-12-23T11:56:43.932Z,986.70
2022-12-23T11:57:43.868Z,986.64
2022-12-23T11:58:43.870Z,986.63
2022-12-23T11:59:44.052Z,986.70
2022-12-23T12:00:43.848Z,986.72
2022-12-23T12:01:43.928Z,986.66
2022-12-23T12:02:43.825Z,986.69
2022-12-23T12:03:43.882Z,986.66
2022-12-23T12:04:43.805Z,986.65
2022-12-23T12:05:43.784Z,986.62
2022-12-23T12:06:43.778Z,986.66
2022-12-23T12:07:43.759Z,986.62
2022-12-23T12:08:43.766Z,986.60
2022-12-23T12:09:44.811Z,986.54
2022-12-23T12:10:43.745Z,986.59
2022-12-23T12:11:49.722Z,986.58
2022-12-23T12:12:43.706Z,986.59
2022-12-23T12:13:45.699Z,986.57
2022-12-23T12:14:43.686Z,986.48
2022-12-23T12:15:43.682Z,986.51
2022-12-23T12:16:43.723Z,986.49
2022-12-23T12:17:43.668Z,986.51
2022-12-23T12:18:43.652Z,986.46
2022-12-23T12:19:45.885Z,986.48
2022-12-23T12:20:43.628Z,986.45
2022-12-23T12:22:40.345Z,986.46
2022-12-23T12:23:34.297Z,986.45
2022-12-23T12:24:34.297Z,986.44
2022-12-23T12:25:38.126Z,986.45
2022-12-23T12:26:34.273Z,986.44
2022-12-23T12:27:34.462Z,986.40
2022-12-23T12:28:34.251Z,986.40
2022-12-23T12:29:34.250Z,986.38
2022-12-23T12:30:34.283Z,986.39
2022-12-23T12:31:34.221Z,986.38
2022-12-23T12:32:34.215Z,986.38
2022-12-23T12:33:40.217Z,986.39
2022-12-23T12:34:34.181Z,986.38
2022-12-23T12:35:34.183Z,986.36
2022-12-23T12:36:34.519Z,986.36
2022-12-23T12:37:40.162Z,986.35
2022-12-23T12:38:36.211Z,986.32
2022-12-23T12:39:40.146Z,986.35
2022-12-23T12:40:34.127Z,986.31
2022-12-23T12:41:34.175Z,986.30
2022-12-23T12:42:34.105Z,986.25
2022-12-23T12:43:34.095Z,986.27
2022-12-23T12:44:34.085Z,986.22
2022-12-23T12:45:34.117Z,986.22
2022-12-23T12:46:34.181Z,986.17
2022-12-23T12:47:59.448Z,986.18
2022-12-23T12:48:35.079Z,986.18
2022-12-23T12:49:34.018Z,986.11
2022-12-23T12:50:34.023Z,986.14
2022-12-23T12:51:40.019Z,986.15
2022-12-23T12:52:33.995Z,986.10
2022-12-23T12:53:33.986Z,986.15
2022-12-23T12:54:33.978Z,986.05
2022-12-23T12:55:39.964Z,986.13
2022-12-23T12:56:33.972Z,986.07
2022-12-23T12:57:33.979Z,986.14
2022-12-23T12:58:33.947Z,986.19
2022-12-23T12:59:33.919Z,986.20
2022-12-23T13:00:34.069Z,986.21
2022-12-23T13:01:33.982Z,986.18
2022-12-23T13:02:33.966Z,986.16
2022-12-23T13:03:33.881Z,986.13
2022-12-23T13:04:34.078Z,986.14
2022-12-23T13:05:33.855Z,986.19
2022-12-23T13:06:33.855Z,986.14
2022-12-23T13:08:53.290Z,986.12
2022-12-23T13:09:53.285Z,986.14
2022-12-23T13:10:47.457Z,986.12
2022-12-23T13:11:47.242Z,986.22
2022-12-23T13:12:47.259Z,986.29
2022-12-23T13:13:47.217Z,986.26
2022-12-23T13:14:53.227Z,986.23
2022-12-23T13:15:47.197Z,986.36
2022-12-23T13:16:47.244Z,986.30
2022-12-23T13:17:47.164Z,986.32
2022-12-23T13:18:47.168Z,986.28
2022-12-23T13:19:47.150Z,986.28
2022-12-23T13:20:47.152Z,986.27
2022-12-23T13:21:53.131Z,986.33
2022-12-23T13:22:53.334Z,986.33
2022-12-23T13:23:53.109Z,986.30
2022-12-23T13:24:47.107Z,986.33
2022-12-23T13:25:47.090Z,986.36
2022-12-23T13:26:47.082Z,986.30
2022-12-23T13:28:21.821Z,986.20
2022-12-23T13:29:21.758Z,986.25
2022-12-23T13:30:21.728Z,986.26
2022-12-23T13:31:21.815Z,986.19
2022-12-23T13:32:21.755Z,986.17
2022-12-23T13:33:27.717Z,986.15
2022-12-23T13:34:27.720Z,986.20
2022-12-23T13:35:21.686Z,986.20
2022-12-23T13:36:27.709Z,986.22
2022-12-23T13:37:21.665Z,986.22
2022-12-23T13:38:21.647Z,986.23
2022-12-23T13:39:21.664Z,986.17
2022-12-23T13:40:27.851Z,986.22
2022-12-23T13:41:21.649Z,986.19
2022-12-23T13:42:21.600Z,986.16
2022-12-23T13:43:21.601Z,986.18
2022-12-23T13:44:21.624Z,986.14
2022-12-23T13:45:21.583Z,986.17
2022-12-23T13:46:21.822Z,986.10
2022-12-23T13:47:21.786Z,986.16
2022-12-23T13:48:21.543Z,986.16
2022-12-23T13:49:21.543Z,986.12
2022-12-23T13:50:21.728Z,986.08
2022-12-23T13:51:27.527Z,986.07
2022-12-23T13:52:21.509Z,986.07
2022-12-23T13:53:21.512Z,986.04
2022-12-23T13:54:21.943Z,986.01
2022-12-23T13:55:21.688Z,986.02
2022-12-23T13:56:21.473Z,986.07
2022-12-23T13:57:21.459Z,986.03
2022-12-23T13:58:21.650Z,986.00
2022-12-23T13:59:21.435Z,986.04
2022-12-23T14:00:21.443Z,985.97
2022-12-23T14:01:21.471Z,986.02
2022-12-23T14:02:21.441Z,986.02
2022-12-23T14:03:21.405Z,986.01
2022-12-23T14:04:27.381Z,986.03
2022-12-23T14:05:21.389Z,985.92
2022-12-23T14:06:21.551Z,985.87
2022-12-23T14:07:21.369Z,985.90
2022-12-23T14:08:21.355Z,985.93
2022-12-23T14:09:27.333Z,985.95
2022-12-23T14:10:21.518Z,985.92
2022-12-23T14:11:21.317Z,985.97
2022-12-23T14:12:21.296Z,986.00
2022-12-23T14:13:21.313Z,986.01
2022-12-23T14:14:21.475Z,986.02
2022-12-23T14:15:21.276Z,986.01
2022-12-23T14:16:21.460Z,985.99
2022-12-23T14:17:21.252Z,985.93
2022-12-23T14:18:21.229Z,985.96
2022-12-23T14:19:21.216Z,985.90
2022-12-23T14:20:21.228Z,985.91
2022-12-23T14:21:21.215Z,985.85
2022-12-23T14:22:27.205Z,985.90
2022-12-23T14:24:04.198Z,986.01
2022-12-23T14:24:59.909Z,986.09
2022-12-23T14:25:59.918Z,986.00
2022-12-23T14:27:00.137Z,986.08
2022-12-23T14:27:59.883Z,986.08
2022-12-23T14:28:59.866Z,986.10
2022-12-23T14:30:05.196Z,986.13
2022-12-23T14:31:01.887Z,986.17
2022-12-23T14:31:59.860Z,986.15
2022-12-23T14:32:59.820Z,986.21
2022-12-23T14:33:59.814Z,986.25
2022-12-23T14:34:59.802Z,986.20
2022-12-23T14:36:05.846Z,986.19
2022-12-23T14:36:59.780Z,986.24
2022-12-23T14:37:59.776Z,986.26
2022-12-23T14:38:59.766Z,986.23
2022-12-23T14:39:59.759Z,986.26
2022-12-23T14:40:59.743Z,986.18
2022-12-23T14:42:05.775Z,986.17
2022-12-23T14:43:01.713Z,986.25
2022-12-23T14:43:59.733Z,986.23
2022-12-23T14:44:59.690Z,986.24
2022-12-23T14:45:59.752Z,986.20
2022-12-23T14:46:59.871Z,986.16
2022-12-23T14:47:59.686Z,986.18
2022-12-23T14:49:29.812Z,986.21
2022-12-23T14:50:00.684Z,986.25
2022-12-23T14:50:59.632Z,986.35
2022-12-23T14:51:59.636Z,986.36
2022-12-23T14:52:59.603Z,986.36
2022-12-23T14:53:59.650Z,986.29
2022-12-23T14:55:28.445Z,986.32
2022-12-23T14:56:00.615Z,986.33
2022-12-23T14:56:59.562Z,986.33
2022-12-23T14:58:03.113Z,986.33
2022-12-23T14:59:06.594Z,986.36
2022-12-23T14:59:59.542Z,986.38
2022-12-23T15:00:59.523Z,986.33
2022-12-23T15:01:59.576Z,986.39
2022-12-23T15:02:59.541Z,986.29
2022-12-23T15:04:01.842Z,986.31
2022-12-23T15:04:59.489Z,986.34
2022-12-23T15:05:59.471Z,986.34
2022-12-23T15:06:59.452Z,986.27
2022-12-23T15:07:59.451Z,986.29
2022-12-23T15:09:34.129Z,986.28
2022-12-23T15:10:34.115Z,986.32
2022-12-23T15:11:34.101Z,986.23
2022-12-23T15:12:36.346Z,986.25
2022-12-23T15:13:34.086Z,986.30
2022-12-23T15:14:34.063Z,986.32
2022-12-23T15:15:34.061Z,986.29
2022-12-23T15:16:34.533Z,986.30
2022-12-23T15:17:34.047Z,986.31
2022-12-23T15:18:34.044Z,986.38
2022-12-23T15:19:40.050Z,986.40
2022-12-23T15:20:34.014Z,986.33
2022-12-23T15:21:34.005Z,986.37
2022-12-23T15:23:33.977Z,986.43
2022-12-23T15:24:33.960Z,986.40
2022-12-23T15:26:33.936Z,986.40
2022-12-23T15:28:39.929Z,986.45
2022-12-23T15:29:40.337Z,986.42
2022-12-23T15:30:33.943Z,986.48
2022-12-23T15:34:33.870Z,986.61
2022-12-23T15:37:33.856Z,986.65
2022-12-23T15:47:14.756Z,986.75
2022-12-23T15:53:13.618Z,986.77
2022-12-23T15:54:12.544Z,986.81
2022-12-23T15:58:12.299Z,986.78
2022-12-23T16:01:12.276Z,986.91
2022-12-23T16:02:49.836Z,986.92
2022-12-23T16:05:12.241Z,987.09
2022-12-23T16:06:18.241Z,987.00
2022-12-23T16:08:12.222Z,987.00
2022-12-23T17:42:46.006Z,988.33
2022-12-23T18:45:20.224Z,989.55
2022-12-23T18:47:20.332Z,989.55
2022-12-23T18:57:20.018Z,989.39
2022-12-23T18:58:20.018Z,989.44
2022-12-23T18:59:24.349Z,989.40
2022-12-23T19:03:55.095Z,989.61
2022-12-23T19:06:55.065Z,989.57
2022-12-23T19:07:55.068Z,989.60
2022-12-23T19:10:55.020Z,989.58
2022-12-23T19:12:54.995Z,989.54
2022-12-23T19:14:01.004Z,989.64
2022-12-23T19:14:54.981Z,989.61
2022-12-23T19:15:55.108Z,989.75
2022-12-23T19:18:54.940Z,989.81
2022-12-23T19:22:54.946Z,989.86
2022-12-23T19:23:54.913Z,989.82
2022-12-23T19:29:00.844Z,989.85
2022-12-23T19:29:54.828Z,989.91
2022-12-23T19:30:54.847Z,989.91
2022-12-23T19:32:54.818Z,989.95
2022-12-23T19:33:54.792Z,990.01
2022-12-23T19:34:54.773Z,990.04
2022-12-23T19:35:54.774Z,990.12
2022-12-23T19:36:54.752Z,990.18
2022-12-23T19:37:54.756Z,990.35
2022-12-23T19:39:54.730Z,990.31
2022-12-23T19:40:54.774Z,990.39
2022-12-23T19:41:54.698Z,990.33
2022-12-23T19:42:54.700Z,990.41
2022-12-23T19:44:54.663Z,990.39
2022-12-23T19:45:54.892Z,990.34
2022-12-23T19:46:54.748Z,990.44
2022-12-23T19:49:54.831Z,990.45
2022-12-23T19:52:33.339Z,990.47
2022-12-23T19:53:33.330Z,990.54
2022-12-23T19:54:35.372Z,990.50
2022-12-23T19:55:39.310Z,990.57
2022-12-23T19:56:33.296Z,990.53
2022-12-23T19:57:39.284Z,990.59
2022-12-23T19:58:33.301Z,990.56
2022-12-23T19:59:33.258Z,990.54
2022-12-23T20:00:33.263Z,990.46
2022-12-23T20:01:33.259Z,990.45
2022-12-23T20:03:12.077Z,990.53
2022-12-23T20:04:12.030Z,990.45
2022-12-23T20:05:12.011Z,990.55
2022-12-23T20:06:11.997Z,990.47
2022-12-23T20:07:12.193Z,990.56
2022-12-23T20:08:11.966Z,990.55
2022-12-23T20:09:17.975Z,990.50
2022-12-23T20:10:17.951Z,990.61
2022-12-23T20:11:11.940Z,990.59
2022-12-23T20:12:12.152Z,990.59
2022-12-23T20:13:11.924Z,990.67
2022-12-23T20:14:11.909Z,990.67
2022-12-23T20:15:17.911Z,990.69
2022-12-23T20:16:12.232Z,990.68
2022-12-23T20:17:11.877Z,990.76
2022-12-23T20:18:11.866Z,990.75
2022-12-23T20:19:12.064Z,990.74
2022-12-23T20:20:11.882Z,990.71
2022-12-23T20:21:11.889Z,990.69
2022-12-23T20:22:12.018Z,990.68
2022-12-23T20:23:11.815Z,990.65
2022-12-23T20:24:11.810Z,990.66
2022-12-23T20:25:11.795Z,990.55
2022-12-23T20:26:46.540Z,990.61
2022-12-23T20:27:48.557Z,990.60
2022-12-23T20:28:46.702Z,990.60
2022-12-23T20:29:46.688Z,990.63
2022-12-23T20:30:46.535Z,990.68
2022-12-23T20:31:46.563Z,990.60
2022-12-23T20:34:33.277Z,990.64
2022-12-23T20:35:31.302Z,990.64
2022-12-23T20:36:29.575Z,990.64
2022-12-23T20:37:29.257Z,990.61
2022-12-23T20:38:29.255Z,990.63
2022-12-23T20:39:29.241Z,990.64
2022-12-23T20:40:29.241Z,990.74
2022-12-23T20:41:29.213Z,990.72
2022-12-23T20:42:29.212Z,990.81
2022-12-23T20:43:29.197Z,990.83
2022-12-23T20:44:35.219Z,990.90
2022-12-23T20:45:30.215Z,990.75
2022-12-23T20:46:29.196Z,990.86
2022-12-23T20:47:29.152Z,990.90
2022-12-23T20:48:35.174Z,990.88
2022-12-23T20:49:35.178Z,990.96
2022-12-23T20:51:03.883Z,991.10
2022-12-23T20:52:03.869Z,991.09
2022-12-23T20:53:03.838Z,991.06
2022-12-23T20:54:03.838Z,991.07
2022-12-23T20:55:03.824Z,991.09
2022-12-23T20:56:03.819Z,991.13
2022-12-23T20:57:04.109Z,991.08
2022-12-23T20:58:03.795Z,991.10
2022-12-23T21:00:03.777Z,991.03
2022-12-23T21:01:03.758Z,991.04
2022-12-23T21:02:03.838Z,990.94
2022-12-23T21:03:10.080Z,990.96
2022-12-23T21:04:11.754Z,990.93
2022-12-23T21:05:03.712Z,990.98
2022-12-23T21:06:03.707Z,991.05
2022-12-23T21:07:03.722Z,991.09
2022-12-23T21:08:03.691Z,991.12
2022-12-23T21:09:03.692Z,991.17
2022-12-23T21:10:03.873Z,991.17
2022-12-23T21:11:38.419Z,991.32
2022-12-23T21:12:38.385Z,991.33
2022-12-23T21:13:38.366Z,991.34
2022-12-23T21:14:38.575Z,991.23
2022-12-23T21:15:38.344Z,991.20
2022-12-23T21:16:38.505Z,991.21
2022-12-23T21:17:44.538Z,991.31
2022-12-23T21:18:38.332Z,991.28
2022-12-23T21:19:38.304Z,991.33
2022-12-23T21:20:38.317Z,991.30
2022-12-23T21:21:38.284Z,991.42
2022-12-23T21:22:38.308Z,991.46
2022-12-23T21:23:38.267Z,991.41
2022-12-23T21:24:38.263Z,991.48
2022-12-23T21:25:38.243Z,991.46
2022-12-23T21:26:38.244Z,991.52
2022-12-23T21:27:38.222Z,991.56
2022-12-23T21:28:38.220Z,991.60
2022-12-23T21:29:38.200Z,991.56
2022-12-23T21:30:38.201Z,991.60
2022-12-23T21:31:44.258Z,991.55
2022-12-23T21:32:38.184Z,991.60
2022-12-23T21:33:38.182Z,991.60
2022-12-23T21:34:38.176Z,991.54
2022-12-23T21:35:38.137Z,991.57
2022-12-23T21:36:44.246Z,991.53
2022-12-23T21:38:16.892Z,991.56
2022-12-23T21:39:16.864Z,991.57
2022-12-23T21:40:23.052Z,991.56
2022-12-23T21:41:22.843Z,991.69
2022-12-23T21:42:16.818Z,991.53
2022-12-23T21:43:16.817Z,991.60
2022-12-23T21:44:22.815Z,991.68
2022-12-23T21:45:17.000Z,991.63
2022-12-23T21:46:16.935Z,991.64
2022-12-23T21:47:16.900Z,991.71
2022-12-23T21:48:16.757Z,991.74
2022-12-23T21:49:16.757Z,991.75
2022-12-23T21:50:16.732Z,991.74
2022-12-23T21:51:16.935Z,991.83
2022-12-23T21:53:16.712Z,991.79
2022-12-23T21:54:22.723Z,991.86
2022-12-23T21:55:16.693Z,991.85
2022-12-23T21:56:16.678Z,991.87
2022-12-23T21:57:16.674Z,991.87
2022-12-23T21:58:16.651Z,991.87
2022-12-23T21:59:16.675Z,991.86
2022-12-23T22:00:16.634Z,991.91
2022-12-23T22:01:16.922Z,992.00
2022-12-23T22:02:16.715Z,991.96
2022-12-23T22:03:16.628Z,991.96
2022-12-23T22:04:16.590Z,991.98
2022-12-23T22:05:16.586Z,991.97
2022-12-23T22:06:22.599Z,992.12
2022-12-23T22:07:16.582Z,992.07
2022-12-23T22:08:16.581Z,992.01
2022-12-23T22:09:16.569Z,992.07
2022-12-23T22:10:22.555Z,992.01
2022-12-23T22:11:16.548Z,992.06
2022-12-23T22:12:16.508Z,992.13
2022-12-23T22:13:22.514Z,992.22
2022-12-23T22:14:16.495Z,992.23
2022-12-23T22:15:16.685Z,992.22
2022-12-23T22:16:16.507Z,992.25
2022-12-23T22:17:16.465Z,992.26
2022-12-23T22:18:22.455Z,992.25
2022-12-23T22:19:16.438Z,992.34
2022-12-23T22:20:16.431Z,992.33
2022-12-23T22:21:16.421Z,992.25
2022-12-23T22:22:16.403Z,992.22
2022-12-23T22:23:16.419Z,992.24
2022-12-23T22:24:16.582Z,992.27
2022-12-23T22:25:16.378Z,992.30
2022-12-23T22:26:25.667Z,992.35
2022-12-23T22:27:16.362Z,992.37
2022-12-23T22:28:16.346Z,992.45
2022-12-23T22:29:16.342Z,992.39
2022-12-23T22:30:16.321Z,992.49
2022-12-23T22:31:16.355Z,992.46
2022-12-23T22:32:16.306Z,992.49
2022-12-23T22:33:16.303Z,992.50
2022-12-23T22:34:16.503Z,992.47
2022-12-23T22:35:22.286Z,992.32
2022-12-23T22:36:16.294Z,992.43
2022-12-23T22:37:16.256Z,992.53
2022-12-23T22:38:16.236Z,992.51
2022-12-23T22:39:20.734Z,992.48
2022-12-23T22:40:59.021Z,992.61
2022-12-23T22:41:59.023Z,992.61
2022-12-23T22:42:58.997Z,992.52
2022-12-23T22:43:59.026Z,992.58
2022-12-23T22:44:58.979Z,992.64
2022-12-23T22:46:04.990Z,992.63
2022-12-23T22:46:59.163Z,992.59
2022-12-23T22:47:58.962Z,992.59
2022-12-23T22:48:59.140Z,992.71
2022-12-23T22:49:58.929Z,992.66
2022-12-23T22:50:58.917Z,992.81
2022-12-23T22:52:41.701Z,992.86
2022-12-23T22:53:41.692Z,992.77
2022-12-23T22:54:41.673Z,992.75
2022-12-23T22:55:41.690Z,992.72
2022-12-23T22:56:41.653Z,992.74
2022-12-23T22:57:47.678Z,992.78
2022-12-23T22:58:41.632Z,992.93
2022-12-23T22:59:41.833Z,992.94
2022-12-23T23:00:41.609Z,992.85
2022-12-23T23:01:41.654Z,992.89
2022-12-23T23:02:41.795Z,992.84
2022-12-23T23:03:43.635Z,992.94
2022-12-23T23:04:41.588Z,992.96
2022-12-23T23:05:41.699Z,993.00
2022-12-23T23:06:41.556Z,993.10
2022-12-23T23:07:41.546Z,993.07
2022-12-23T23:08:41.543Z,993.01
2022-12-23T23:09:41.544Z,992.94
2022-12-23T23:10:41.516Z,992.92
2022-12-23T23:11:41.500Z,992.92
2022-12-23T23:12:47.508Z,992.94
2022-12-23T23:13:41.498Z,992.97
2022-12-23T23:14:41.480Z,992.97
2022-12-23T23:15:41.453Z,992.96
2022-12-23T23:16:41.619Z,992.96